Time;durP1;ratioP1;P1;durP2;ratioP2;P2;SDS_P1;SDS_P2;PMS_P1;PMS_P2;Temp;Humidity;BMP_temperature;BMP_pressure;BME280_temperature;BME280_humidity;BME280_pressure;Samples;Min_cycle;Max_cycle;Signal;HPM_P1;HPM_P2
2024/01/23 00:00:54;;;;;;;14.33;8.80;;;;;;;-3.71;80.01;98237.88;5068375;28;20191;-62
2024/01/23 00:03:25;;;;;;;14.03;8.83;;;;;;;-3.81;81.14;98244.31;5087277;28;20643;-62
2024/01/23 00:05:52;;;;;;;16.40;9.13;;;;;;;-3.81;80.41;98241.78;5085684;28;20195;-63
2024/01/23 00:08:19;;;;;;;12.67;7.47;;;;;;;-3.98;81.78;98235.41;5086734;28;20230;-63
2024/01/23 00:10:46;;;;;;;21.30;11.53;;;;;;;-3.96;81.91;98236.31;5085906;28;20207;-64
2024/01/23 00:13:13;;;;;;;20.87;11.87;;;;;;;-4.11;82.40;98225.72;5086402;28;20818;-65
2024/01/23 00:15:40;;;;;;;14.40;8.20;;;;;;;-3.94;82.49;98234.69;5086663;28;20286;-63
2024/01/23 00:18:07;;;;;;;12.97;7.40;;;;;;;-4.04;82.19;98225.09;5086120;28;20251;-62
2024/01/23 00:20:35;;;;;;;13.63;7.47;;;;;;;-4.17;82.21;98228.06;5087182;28;20202;-63
2024/01/23 00:23:02;;;;;;;10.53;6.87;;;;;;;-4.19;82.59;98219.59;5085602;28;20241;-62
2024/01/23 00:25:29;;;;;;;10.70;6.43;;;;;;;-4.39;82.62;98220.66;5086646;28;20204;-64
2024/01/23 00:27:56;;;;;;;11.57;7.20;;;;;;;-4.40;82.29;98216.38;5086395;28;20230;-61
2024/01/23 00:30:23;;;;;;;13.07;7.97;;;;;;;-4.52;82.11;98208.44;5086137;28;20189;-61
2024/01/23 00:32:51;;;;;;;13.73;8.20;;;;;;;-4.55;83.00;98206.66;5086372;28;20241;-64
2024/01/23 00:35:18;;;;;;;13.27;9.77;;;;;;;-4.63;83.45;98176.91;5085603;28;20677;-61
2024/01/23 00:37:45;;;;;;;13.87;8.77;;;;;;;-4.51;83.06;98198.38;5086587;28;20232;-63
2024/01/23 00:40:12;;;;;;;13.00;8.23;;;;;;;-4.44;81.95;98189.31;5085437;28;20281;-60
2024/01/23 00:42:39;;;;;;;17.70;10.03;;;;;;;-4.47;82.02;98195.13;5086571;28;20287;-62
2024/01/23 00:45:08;;;;;;;18.20;11.50;;;;;;;-4.33;81.77;98200.63;5085557;28;20250;-62
2024/01/23 00:47:35;;;;;;;23.03;13.83;;;;;;;-4.26;82.47;98192.38;5086080;28;20231;-63
2024/01/23 00:50:02;;;;;;;17.63;11.43;;;;;;;-4.07;81.95;98192.13;5086233;28;20257;-64
2024/01/23 00:52:30;;;;;;;16.53;11.10;;;;;;;-3.91;80.77;98190.88;5067756;28;20194;-62
2024/01/23 00:55:02;;;;;;;17.60;12.07;;;;;;;-3.85;80.37;98189.38;5086048;28;20196;-63
2024/01/23 00:57:32;;;;;;;18.60;11.33;;;;;;;-3.68;80.50;98182.28;5085229;28;20249;-63
2024/01/23 01:00:01;;;;;;;18.60;10.80;;;;;;;-3.76;80.12;98159.31;5068038;28;20546;-64
2024/01/23 01:02:29;;;;;;;15.57;10.97;;;;;;;-3.63;80.03;98178.22;5085238;28;20196;-64
2024/01/23 01:04:56;;;;;;;19.77;11.47;;;;;;;-3.48;80.42;98174.41;5085622;28;20212;-63
2024/01/23 01:07:23;;;;;;;15.70;10.97;;;;;;;-3.44;79.14;98173.66;5085410;28;20682;-64
2024/01/23 01:09:50;;;;;;;17.20;12.13;;;;;;;-3.52;79.67;98172.63;5085059;28;20224;-62
2024/01/23 01:12:17;;;;;;;19.67;11.20;;;;;;;-3.44;79.43;98166.06;5086010;28;20251;-64
2024/01/23 01:14:44;;;;;;;19.30;12.10;;;;;;;-3.50;79.03;98172.66;5085031;28;20210;-61
2024/01/23 01:17:11;;;;;;;16.67;10.63;;;;;;;-3.59;78.81;98175.81;5085603;28;20238;-60
2024/01/23 01:19:39;;;;;;;20.87;12.13;;;;;;;-3.62;78.28;98163.06;5085036;28;20332;-61
2024/01/23 01:22:06;;;;;;;21.30;11.70;;;;;;;-3.57;78.59;98170.78;5085595;28;20687;-62
2024/01/23 01:24:33;;;;;;;18.07;10.77;;;;;;;-4.00;78.98;98113.09;5089857;28;20242;-63
2024/01/23 01:27:00;;;;;;;16.10;10.90;;;;;;;-3.68;79.46;98162.91;5089588;28;20204;-63
2024/01/23 01:29:27;;;;;;;18.63;11.83;;;;;;;-3.75;79.01;98160.16;5089960;28;20666;-63
2024/01/23 01:31:54;;;;;;;21.40;12.50;;;;;;;-3.65;78.95;98160.47;5089111;28;20212;-61
2024/01/23 01:34:21;;;;;;;20.17;11.73;;;;;;;-3.65;78.79;98157.06;5089906;28;20195;-60
2024/01/23 01:36:49;;;;;;;17.80;11.10;;;;;;;-3.71;77.92;98150.16;5089339;28;20219;-64
2024/01/23 01:39:16;;;;;;;14.07;9.53;;;;;;;-3.77;78.03;98157.56;5089863;28;20283;-62
2024/01/23 01:41:43;;;;;;;15.10;8.33;;;;;;;-3.84;78.31;98155.69;5089592;28;20201;-63
2024/01/23 01:44:10;;;;;;;13.83;9.00;;;;;;;-3.79;78.00;98151.63;5089281;28;20328;-62
2024/01/23 01:46:38;;;;;;;15.63;9.97;;;;;;;-4.04;78.63;98146.72;5089790;28;20280;-63
2024/01/23 01:49:05;;;;;;;14.90;9.47;;;;;;;-4.17;79.32;98152.22;5088522;28;20236;-62
2024/01/23 01:51:33;;;;;;;13.47;9.17;;;;;;;-4.28;79.35;98146.84;5089627;28;20201;-64
2024/01/23 01:54:00;;;;;;;13.53;8.30;;;;;;;-4.55;80.03;98137.56;5088760;28;20766;-64
2024/01/23 01:56:29;;;;;;;12.87;8.30;;;;;;;-4.78;80.59;98124.22;5089151;28;20733;-63
2024/01/23 01:58:59;;;;;;;15.10;8.27;;;;;;;-4.71;81.84;98123.63;5089558;28;20633;-63
2024/01/23 02:01:27;;;;;;;12.97;8.40;;;;;;;-4.64;81.05;98124.69;5088865;28;20706;-63
2024/01/23 02:03:54;;;;;;;13.77;7.70;;;;;;;-4.69;81.84;98132.09;5089636;28;20196;-62
2024/01/23 02:06:22;;;;;;;13.20;7.87;;;;;;;-4.67;81.38;98124.56;5088458;28;20194;-60
2024/01/23 02:08:50;;;;;;;13.63;7.67;;;;;;;-4.71;81.76;98122.75;5089322;28;20259;-62
2024/01/23 02:11:17;;;;;;;15.97;8.90;;;;;;;-4.76;81.86;98114.19;5088210;28;20197;-62
2024/01/23 02:13:44;;;;;;;15.53;8.70;;;;;;;-4.66;81.76;98121.25;5070399;28;20288;-62
2024/01/23 02:16:12;;;;;;;12.00;8.83;;;;;;;-4.67;81.72;98114.47;5088821;28;20225;-63
2024/01/23 02:18:39;;;;;;;18.07;9.90;;;;;;;-4.74;82.21;98107.53;5070483;28;20287;-58
2024/01/23 02:21:08;;;;;;;17.13;10.20;;;;;;;-4.78;83.04;98110.78;5088596;28;20288;-59
2024/01/23 02:23:35;;;;;;;17.70;8.83;;;;;;;-4.83;82.16;98092.06;5087843;28;20232;-60
2024/01/23 02:26:02;;;;;;;14.30;9.00;;;;;;;-4.91;82.60;98106.16;5089062;28;20208;-62
2024/01/23 02:28:29;;;;;;;15.20;8.07;;;;;;;-5.05;83.16;98109.09;5087919;28;20257;-63
2024/01/23 02:30:56;;;;;;;11.03;7.83;;;;;;;-5.01;82.88;98103.31;5088668;28;20198;-62
2024/01/23 02:33:23;;;;;;;13.40;7.40;;;;;;;-5.13;82.62;98092.84;5087932;28;20201;-61
2024/01/23 02:35:50;;;;;;;10.27;7.37;;;;;;;-5.13;83.76;98097.88;5087728;28;20209;-60
2024/01/23 02:38:18;;;;;;;15.03;7.33;;;;;;;-5.16;83.19;98102.00;5088671;28;20214;-62
2024/01/23 02:40:45;;;;;;;11.63;7.53;;;;;;;-5.18;83.71;98099.44;5087662;28;20206;-60
2024/01/23 02:43:12;;;;;;;12.43;6.80;;;;;;;-5.19;83.72;98102.75;5088731;28;20224;-62
2024/01/23 02:45:39;;;;;;;10.17;7.20;;;;;;;-5.10;84.33;98092.09;5087562;28;20197;-61
2024/01/23 02:48:06;;;;;;;9.23;6.00;;;;;;;-5.11;83.24;98088.69;5088322;28;20197;-58
2024/01/23 02:50:34;;;;;;;11.53;6.53;;;;;;;-5.44;83.24;98049.75;5087930;28;20673;-63
2024/01/23 02:53:01;;;;;;;12.37;7.57;;;;;;;-5.15;83.41;98094.47;5087581;28;20201;-61
2024/01/23 02:55:28;;;;;;;11.13;5.80;;;;;;;-5.12;83.06;98089.53;5087850;28;20220;-61
2024/01/23 02:57:55;;;;;;;13.27;7.30;;;;;;;-5.08;82.64;98093.84;5087336;28;20196;-60
2024/01/23 03:00:22;;;;;;;9.10;6.93;;;;;;;-5.11;82.64;98100.47;5088143;28;20329;-62
2024/01/23 03:02:49;;;;;;;14.43;7.53;;;;;;;-5.17;82.62;98090.16;5069169;28;20729;-61
2024/01/23 03:05:16;;;;;;;8.47;6.47;;;;;;;-5.44;82.25;98064.91;5088155;28;20258;-63
2024/01/23 03:07:43;;;;;;;14.80;8.10;;;;;;;-5.26;82.40;98088.22;5087486;28;20542;-63
2024/01/23 03:10:12;;;;;;;14.70;7.77;;;;;;;-5.41;82.89;98066.66;5087663;28;20324;-61
2024/01/23 03:12:39;;;;;;;12.53;7.60;;;;;;;-5.44;82.78;98089.31;5069363;28;20761;-60
2024/01/23 03:15:07;;;;;;;7.63;5.97;;;;;;;-5.75;82.48;98067.25;5068931;28;20289;-61
2024/01/23 03:17:35;;;;;;;11.53;6.33;;;;;;;-5.62;82.97;98083.63;5069727;28;20450;-58
2024/01/23 03:20:02;;;;;;;10.03;6.33;;;;;;;-5.62;83.17;98078.56;5086946;28;20789;-58
2024/01/23 03:22:30;;;;;;;10.47;6.47;;;;;;;-5.72;83.60;98071.50;5087738;28;20188;-61
2024/01/23 03:24:58;;;;;;;11.63;6.40;;;;;;;-5.59;84.04;98072.00;5087257;28;20673;-59
2024/01/23 03:27:26;;;;;;;9.80;6.27;;;;;;;-5.49;83.63;98061.38;5087287;28;20616;-59
2024/01/23 03:29:53;;;;;;;12.87;7.43;;;;;;;-5.57;83.25;98045.16;5069279;28;20485;-62
2024/01/23 03:32:20;;;;;;;13.97;7.80;;;;;;;-5.48;82.69;98058.03;5086734;28;20200;-63
2024/01/23 03:34:49;;;;;;;11.30;8.17;;;;;;;-5.49;82.96;98055.47;5087509;28;20517;-63
2024/01/23 03:37:17;;;;;;;15.33;8.00;;;;;;;-5.56;83.72;98058.63;5086389;28;20236;-61
2024/01/23 03:39:44;;;;;;;10.57;7.80;;;;;;;-5.45;84.01;98052.25;5087237;28;20200;-61
2024/01/23 03:42:11;;;;;;;15.80;9.03;;;;;;;-5.35;83.98;98046.69;5086655;28;20510;-64
2024/01/23 03:44:38;;;;;;;14.37;8.27;;;;;;;-5.37;83.02;98049.16;5086680;28;20980;-63
2024/01/23 03:47:05;;;;;;;17.03;9.27;;;;;;;-5.38;83.26;98042.38;5086644;28;20215;-62
2024/01/23 03:49:33;;;;;;;16.80;9.63;;;;;;;-5.38;84.40;98031.47;5086450;28;20277;-63
2024/01/23 03:52:00;;;;;;;16.13;8.90;;;;;;;-5.37;84.40;98045.78;5087368;28;20253;-61
2024/01/23 03:54:27;;;;;;;14.20;8.73;;;;;;;-5.25;83.93;98036.94;5086317;28;20198;-62
2024/01/23 03:56:54;;;;;;;15.83;9.40;;;;;;;-5.18;84.28;98031.28;5087103;28;20531;-62
2024/01/23 03:59:22;;;;;;;25.53;9.37;;;;;;;-5.06;83.49;98028.25;5086471;28;20603;-62
2024/01/23 04:01:49;;;;;;;15.80;8.90;;;;;;;-4.99;83.27;98020.06;5068832;28;20201;-63
2024/01/23 04:04:16;;;;;;;12.13;8.23;;;;;;;-4.93;82.04;98024.44;5086903;28;20300;-64
2024/01/23 04:06:43;;;;;;;13.83;9.30;;;;;;;-4.90;82.43;98025.38;5086524;28;20580;-64
2024/01/23 04:09:10;;;;;;;16.63;9.23;;;;;;;-5.02;82.45;98012.38;5086817;28;20753;-63
2024/01/23 04:11:37;;;;;;;15.23;9.60;;;;;;;-4.97;82.25;98029.38;5085871;28;20202;-63
2024/01/23 04:14:04;;;;;;;14.97;9.93;;;;;;;-4.84;82.48;98017.13;5086916;28;20688;-62
2024/01/23 04:16:31;;;;;;;12.37;8.23;;;;;;;-4.89;81.95;98006.03;5084030;28;20585;-60
2024/01/23 04:18:58;;;;;;;16.97;9.47;;;;;;;-4.83;81.51;98011.25;5086632;28;20214;-59
2024/01/23 04:21:26;;;;;;;17.23;9.50;;;;;;;-4.89;81.71;98006.91;5086521;28;20227;-59
2024/01/23 04:23:53;;;;;;;18.03;10.07;;;;;;;-5.01;81.50;97961.91;5085916;28;20235;-61
2024/01/23 04:26:20;;;;;;;19.97;11.93;;;;;;;-4.81;81.19;97986.91;5086350;28;20197;-61
2024/01/23 04:28:48;;;;;;;14.83;8.90;;;;;;;-4.99;80.02;97983.03;5085343;28;20232;-62
2024/01/23 04:31:18;;;;;;;12.67;8.10;;;;;;;-4.91;80.37;97997.56;5086495;28;20262;-61
2024/01/23 04:33:46;;;;;;;12.70;7.47;;;;;;;-4.95;79.96;97996.63;5085794;28;20261;-62
2024/01/23 04:36:15;;;;;;;14.03;7.57;;;;;;;-5.05;80.23;98000.50;5051205;28;20678;-61
2024/01/23 04:38:43;;;;;;;9.27;6.90;;;;;;;-5.13;80.44;98009.53;5067701;28;20208;-64
2024/01/23 04:41:11;;;;;;;14.70;7.03;;;;;;;-5.11;81.44;98000.34;5085597;28;20680;-62
2024/01/23 04:43:38;;;;;;;12.17;6.17;;;;;;;-5.15;81.17;98006.09;5085998;28;20664;-62
2024/01/23 04:46:06;;;;;;;14.53;7.57;;;;;;;-5.38;80.62;97984.34;5085531;28;20217;-62
2024/01/23 04:48:37;;;;;;;13.23;7.53;;;;;;;-5.39;81.03;97995.25;5085967;28;20204;-62
2024/01/23 04:51:05;;;;;;;12.77;7.37;;;;;;;-5.56;80.83;97993.03;5084964;28;20684;-63
2024/01/23 04:53:33;;;;;;;13.13;7.90;;;;;;;-5.59;81.56;98006.41;5085848;28;20218;-63
2024/01/23 04:56:00;;;;;;;14.93;8.37;;;;;;;-5.77;83.19;98003.28;5085693;28;20224;-60
2024/01/23 04:58:29;;;;;;;12.40;7.40;;;;;;;-5.88;82.99;97997.94;5084475;28;20188;-63
2024/01/23 05:00:56;;;;;;;13.07;6.60;;;;;;;-5.97;83.14;97985.00;5085781;28;20284;-62
2024/01/23 05:03:24;;;;;;;12.63;6.80;;;;;;;-6.00;83.40;97991.63;5085030;28;20223;-64
2024/01/23 05:05:51;;;;;;;11.20;7.37;;;;;;;-5.98;84.21;97998.44;5085932;28;20196;-62
2024/01/23 05:08:18;;;;;;;12.47;7.47;;;;;;;-6.07;84.69;97999.78;5085393;28;20193;-61
2024/01/23 05:10:45;;;;;;;12.73;8.17;;;;;;;-6.07;84.47;97997.25;5085178;28;20482;-59
2024/01/23 05:13:15;;;;;;;13.70;7.93;;;;;;;-6.02;85.56;98004.16;5085097;28;20442;-59
2024/01/23 05:15:42;;;;;;;15.77;9.50;;;;;;;-6.07;85.44;97994.72;5084400;28;20300;-60
2024/01/23 05:18:10;;;;;;;9.70;6.63;;;;;;;-6.14;84.98;97995.34;5084382;28;20662;-59
2024/01/23 05:20:38;;;;;;;19.90;8.87;;;;;;;-6.14;85.24;97990.31;5084136;28;20449;-60
2024/01/23 05:23:05;;;;;;;10.63;6.17;;;;;;;-6.34;86.03;97982.06;5082997;28;20523;-62
2024/01/23 05:25:33;;;;;;;15.60;7.80;;;;;;;-6.26;85.52;97978.13;5084566;28;20450;-62
2024/01/23 05:28:00;;;;;;;14.73;8.20;;;;;;;-6.26;85.73;97985.69;5085342;28;20518;-62
2024/01/23 05:30:27;;;;;;;12.47;7.70;;;;;;;-6.30;85.46;97976.31;5085363;28;20478;-61
2024/01/23 05:32:54;;;;;;;12.47;8.70;;;;;;;-6.35;85.30;97957.69;5085033;28;20295;-59
2024/01/23 05:35:22;;;;;;;13.47;8.33;;;;;;;-6.22;85.18;97979.13;5085398;28;20478;-58
2024/01/23 05:37:49;;;;;;;13.57;7.30;;;;;;;-6.17;85.28;97982.63;5066154;28;20470;-60
2024/01/23 05:40:16;;;;;;;12.83;8.00;;;;;;;-6.22;85.57;97981.63;5085826;28;20273;-62
2024/01/23 05:42:44;;;;;;;11.40;7.77;;;;;;;-6.15;84.94;97969.28;5084253;28;20204;-63
2024/01/23 05:45:11;;;;;;;12.43;7.10;;;;;;;-6.02;85.57;97970.53;5085335;28;20204;-61
2024/01/23 05:47:38;;;;;;;15.87;8.47;;;;;;;-6.09;84.60;97953.50;5084480;28;20883;-61
2024/01/23 05:50:06;;;;;;;12.37;7.70;;;;;;;-5.96;84.75;97958.16;5084718;28;20478;-60
2024/01/23 05:52:33;;;;;;;14.50;8.40;;;;;;;-5.79;84.27;97946.91;5084913;28;20541;-61
2024/01/23 05:55:01;;;;;;;15.07;9.00;;;;;;;-5.68;82.77;97945.56;5065944;28;20888;-62
2024/01/23 05:57:30;;;;;;;17.50;9.83;;;;;;;-5.61;83.16;97939.91;5085450;28;20255;-62
2024/01/23 05:59:57;;;;;;;15.03;10.90;;;;;;;-5.40;83.16;97944.75;5084194;28;20271;-60
2024/01/23 06:02:24;;;;;;;19.03;10.50;;;;;;;-5.45;82.59;97933.66;5084897;28;20632;-60
2024/01/23 06:04:51;;;;;;;19.70;10.53;;;;;;;-5.25;82.38;97941.00;5084458;28;20252;-60
2024/01/23 06:07:19;;;;;;;23.70;11.33;;;;;;;-5.29;81.61;97939.22;5067124;28;20191;-62
2024/01/23 06:09:46;;;;;;;23.90;11.53;;;;;;;-5.16;81.85;97946.34;5068820;28;20213;-59
2024/01/23 06:12:13;;;;;;;29.30;13.83;;;;;;;-5.13;81.60;97948.94;5088202;28;20202;-59
2024/01/23 06:14:40;;;;;;;21.77;13.13;;;;;;;-4.90;81.05;97948.78;5088815;28;20208;-62
2024/01/23 06:17:07;;;;;;;24.80;14.37;;;;;;;-4.78;81.38;97955.00;5087501;28;20207;-60
2024/01/23 06:19:35;;;;;;;25.30;12.97;;;;;;;-4.68;80.94;97951.09;5088655;28;20653;-62
2024/01/23 06:22:02;;;;;;;27.23;13.80;;;;;;;-4.68;80.56;97938.44;5088285;28;20203;-59
2024/01/23 06:24:31;;;;;;;27.93;15.10;;;;;;;-4.53;80.83;97946.44;5088282;28;20232;-59
2024/01/23 06:26:59;;;;;;;22.60;14.10;;;;;;;-4.33;80.01;97950.38;5088508;28;20188;-59
2024/01/23 06:29:26;;;;;;;25.87;15.40;;;;;;;-4.54;79.50;97902.63;5087588;28;20652;-64
2024/01/23 06:31:53;;;;;;;28.60;14.50;;;;;;;-4.20;79.26;97954.91;5088342;28;20740;-61
2024/01/23 06:34:21;;;;;;;25.63;14.13;;;;;;;-4.23;78.47;97948.13;5087573;28;20279;-58
2024/01/23 06:36:49;;;;;;;25.53;13.80;;;;;;;-4.29;79.01;97939.50;5088406;28;20222;-63
2024/01/23 06:39:16;;;;;;;23.73;14.73;;;;;;;-4.19;78.36;97944.84;5069308;28;20598;-60
2024/01/23 06:41:45;;;;;;;22.17;14.43;;;;;;;-4.42;77.85;97918.13;5088246;28;20220;-60
2024/01/23 06:44:12;;;;;;;60.63;27.27;;;;;;;-4.17;78.66;97947.41;5069991;28;20185;-60
2024/01/23 06:46:39;;;;;;;16.57;10.97;;;;;;;-4.33;78.29;97925.91;5087495;28;20742;-61
2024/01/23 06:49:06;;;;;;;20.53;12.97;;;;;;;-4.12;78.38;97943.31;5088320;28;20204;-60
2024/01/23 06:51:36;;;;;;;18.40;11.83;;;;;;;-4.02;79.00;97942.75;5087189;28;20205;-60
2024/01/23 06:54:07;;;;;;;16.77;11.10;;;;;;;-4.18;78.41;97928.84;5088204;28;20280;-59
2024/01/23 06:56:35;;;;;;;18.37;10.93;;;;;;;-4.03;79.67;97920.78;5087183;28;20582;-60
2024/01/23 06:59:04;;;;;;;16.60;10.07;;;;;;;-4.00;78.89;97925.94;5087585;28;20197;-60
2024/01/23 07:01:32;;;;;;;18.63;10.93;;;;;;;-3.78;78.76;97928.16;5087232;28;20214;-60
2024/01/23 07:04:02;;;;;;;17.10;10.87;;;;;;;-3.52;78.38;97927.09;5086733;28;20205;-61
2024/01/23 07:06:30;;;;;;;17.90;10.23;;;;;;;-3.70;77.95;97905.56;5087841;28;20204;-61
2024/01/23 07:08:57;;;;;;;18.20;10.40;;;;;;;-3.43;77.94;97927.31;5086646;28;20660;-59
2024/01/23 07:11:25;;;;;;;14.10;9.17;;;;;;;-3.31;78.39;97925.06;5087957;28;20707;-60
2024/01/23 07:13:52;;;;;;;14.40;8.70;;;;;;;-3.23;76.81;97909.16;5086756;28;20276;-61
2024/01/23 07:16:19;;;;;;;13.83;8.60;;;;;;;-3.31;76.98;97903.94;5087648;28;20215;-62
2024/01/23 07:18:46;;;;;;;12.40;8.20;;;;;;;-3.12;77.23;97915.31;5087512;28;20264;-60
2024/01/23 07:21:13;;;;;;;62.97;42.87;;;;;;;-3.09;77.16;97898.50;5086220;28;20202;-61
2024/01/23 07:23:41;;;;;;;9.27;6.57;;;;;;;-2.83;76.05;97917.63;5087143;28;20221;-62
2024/01/23 07:26:08;;;;;;;12.93;7.23;;;;;;;-3.24;76.69;97859.34;5086061;28;20252;-65
2024/01/23 07:28:35;;;;;;;11.53;6.90;;;;;;;-2.74;75.92;97924.56;5087646;28;20260;-63
2024/01/23 07:31:22;;;;;;;9.47;5.87;;;;;;;-2.68;76.58;97919.63;5086157;28;20234;-65
2024/01/23 07:33:50;;;;;;;8.67;5.80;;;;;;;-2.62;76.00;97917.22;5069008;28;20244;-61
2024/01/23 07:36:17;;;;;;;10.77;5.87;;;;;;;-2.72;77.15;97928.00;5086930;28;20747;-63
2024/01/23 07:38:44;;;;;;;10.97;6.37;;;;;;;-2.69;76.93;97925.50;5086379;28;20677;-63
2024/01/23 07:41:11;;;;;;;10.50;5.97;;;;;;;-2.65;77.38;97922.19;5087203;28;20285;-63
2024/01/23 07:43:38;;;;;;;13.70;6.20;;;;;;;-2.59;76.88;97917.25;5086383;28;20555;-63
2024/01/23 07:46:05;;;;;;;9.53;6.47;;;;;;;-2.50;77.38;97917.44;5087336;28;20737;-60
2024/01/23 07:48:35;;;;;;;8.47;5.97;;;;;;;-2.43;76.44;97898.94;5068375;28;20200;-62
2024/01/23 07:51:04;;;;;;;7.07;4.77;;;;;;;-2.40;76.88;97908.31;5086540;28;20216;-60
2024/01/23 07:53:32;;;;;;;9.93;5.83;;;;;;;-2.32;76.68;97910.16;5086538;28;20285;-62
2024/01/23 07:56:00;;;;;;;12.90;5.73;;;;;;;-2.33;76.72;97867.03;5067718;28;20312;-64
2024/01/23 07:58:27;;;;;;;10.37;5.90;;;;;;;-2.03;76.03;97908.13;5086924;28;20194;-61
2024/01/23 08:00:54;;;;;;;8.67;5.63;;;;;;;-1.71;75.73;97910.34;5085578;28;20656;-61
2024/01/23 08:03:21;;;;;;;10.77;6.97;;;;;;;-1.39;75.82;97907.47;5086846;28;20199;-60
2024/01/23 08:05:51;;;;;;;10.47;5.00;;;;;;;-1.27;73.48;97905.94;5085741;28;20196;-64
2024/01/23 08:08:19;;;;;;;7.33;5.33;;;;;;;-1.25;73.66;97898.34;5087171;28;20256;-62
2024/01/23 08:10:47;;;;;;;10.17;6.23;;;;;;;-1.44;73.71;97864.22;5086126;28;20603;-65
2024/01/23 08:13:14;;;;;;;15.73;7.13;;;;;;;-1.18;73.67;97908.63;5067629;28;20197;-61
2024/01/23 08:15:41;;;;;;;10.20;6.03;;;;;;;-1.02;72.71;97919.84;5085677;28;20204;-60
2024/01/23 08:18:09;;;;;;;10.83;7.23;;;;;;;-1.21;73.18;97884.84;5085233;28;20210;-59
2024/01/23 08:20:36;;;;;;;15.67;9.13;;;;;;;-0.87;72.63;97918.34;5086213;28;20739;-63
2024/01/23 08:23:03;;;;;;;14.37;8.23;;;;;;;-0.71;72.45;97913.47;5084557;28;20228;-60
2024/01/23 08:25:30;;;;;;;18.13;9.33;;;;;;;-0.48;72.37;97901.88;5086109;28;20227;-60
2024/01/23 08:27:59;;;;;;;15.57;9.83;;;;;;;-0.45;70.21;97890.03;5085143;28;20192;-63
2024/01/23 08:30:26;;;;;;;10.53;7.33;;;;;;;-0.25;69.14;97902.97;5085651;28;20322;-60
2024/01/23 08:32:53;;;;;;;11.77;7.73;;;;;;;-0.36;70.34;97889.28;5085785;28;20280;-61
2024/01/23 08:35:20;;;;;;;11.97;6.60;;;;;;;-0.29;69.63;97894.44;5085132;28;20196;-60
2024/01/23 08:37:47;;;;;;;11.87;7.27;;;;;;;-0.25;69.08;97888.53;5086264;28;20608;-60
2024/01/23 08:40:16;;;;;;;14.63;8.70;;;;;;;-0.30;69.78;97885.09;5084707;28;20231;-59
2024/01/23 08:42:44;;;;;;;13.03;7.73;;;;;;;-0.03;69.34;97880.28;5085958;28;20475;-61
2024/01/23 08:45:11;;;;;;;13.43;7.63;;;;;;;-0.05;69.06;97881.09;5084891;28;20577;-63
2024/01/23 08:47:38;;;;;;;12.93;7.03;;;;;;;0.13;68.40;97890.56;5085694;28;20200;-59
2024/01/23 08:50:05;;;;;;;13.63;7.20;;;;;;;0.31;68.75;97875.47;5085384;28;20224;-61
2024/01/23 08:52:32;;;;;;;11.17;7.23;;;;;;;0.35;68.49;97856.81;5066767;28;20283;-62
2024/01/23 08:54:59;;;;;;;9.73;7.27;;;;;;;0.61;66.67;97866.34;5085974;28;20265;-61
2024/01/23 08:57:27;;;;;;;12.60;7.63;;;;;;;0.55;66.57;97868.00;5084355;28;20200;-61
2024/01/23 08:59:54;;;;;;;12.43;7.60;;;;;;;0.59;65.56;97855.28;5085796;28;20200;-61
2024/01/23 09:02:21;;;;;;;11.73;7.10;;;;;;;0.65;66.54;97862.09;5084881;28;20218;-61
2024/01/23 09:04:49;;;;;;;14.27;8.23;;;;;;;0.79;66.56;97858.78;5050348;28;20192;-59
2024/01/23 09:07:17;;;;;;;12.33;7.60;;;;;;;1.00;66.49;97857.19;5085508;28;20196;-60
2024/01/23 09:09:44;;;;;;;9.77;6.03;;;;;;;1.21;63.17;97854.72;5084563;28;20209;-61
2024/01/23 09:12:12;;;;;;;11.73;6.27;;;;;;;1.18;63.26;97852.16;5085858;28;20199;-61
2024/01/23 09:14:41;;;;;;;8.87;6.67;;;;;;;1.02;63.72;97830.84;5084298;28;20196;-63
2024/01/23 09:17:08;;;;;;;9.50;7.17;;;;;;;1.18;63.86;97837.72;5085484;28;20193;-60
2024/01/23 09:19:35;;;;;;;11.30;7.63;;;;;;;1.07;63.67;97806.19;5084647;28;20768;-61
2024/01/23 09:22:04;;;;;;;13.53;8.17;;;;;;;1.25;63.40;97824.16;5085357;28;20192;-60
2024/01/23 09:24:31;;;;;;;11.43;7.40;;;;;;;1.26;62.83;97800.31;5066878;28;20236;-62
2024/01/23 09:27:01;;;;;;;11.97;7.53;;;;;;;1.53;62.40;97810.59;5085378;28;20588;-60
2024/01/23 09:29:28;;;;;;;12.90;8.03;;;;;;;1.69;62.42;97808.91;5086112;28;20197;-65
2024/01/23 09:31:56;;;;;;;15.37;7.07;;;;;;;1.71;62.70;97791.88;5084918;28;20246;-64
2024/01/23 09:34:23;;;;;;;11.20;7.07;;;;;;;1.90;61.62;97819.13;5086126;28;20207;-64
2024/01/23 09:36:51;;;;;;;11.47;6.60;;;;;;;1.80;62.71;97791.91;5085150;28;20196;-64
2024/01/23 09:39:18;;;;;;;11.47;7.47;;;;;;;1.90;61.18;97797.84;5085771;28;20328;-67
2024/01/23 09:41:49;;;;;;;8.93;6.77;;;;;;;1.83;61.49;97801.28;5085968;28;20192;-61
2024/01/23 09:44:18;;;;;;;11.50;7.47;;;;;;;1.95;63.19;97797.03;5086557;28;20735;-63
2024/01/23 09:46:50;;;;;;;8.67;6.37;;;;;;;2.12;62.57;97786.81;5070908;28;20197;-61
2024/01/23 09:49:18;;;;;;;8.90;6.30;;;;;;;1.95;62.07;97773.19;5069546;28;20609;-61
2024/01/23 09:51:48;;;;;;;9.03;6.60;;;;;;;2.30;60.90;97790.19;5089162;28;20220;-61
2024/01/23 09:54:16;;;;;;;10.83;6.80;;;;;;;2.04;60.85;97762.97;5088117;28;20353;-61
2024/01/23 09:56:43;;;;;;;11.00;7.03;;;;;;;2.13;61.01;97776.56;5088753;28;20222;-61
2024/01/23 09:59:10;;;;;;;12.47;7.83;;;;;;;1.95;62.23;97734.88;5088754;28;20589;-62
2024/01/23 10:01:38;;;;;;;11.37;7.13;;;;;;;2.43;60.52;97773.13;5088059;28;20726;-62
2024/01/23 10:04:06;;;;;;;11.77;7.30;;;;;;;2.68;59.41;97776.47;5088770;28;20197;-62
2024/01/23 10:06:34;;;;;;;13.73;8.60;;;;;;;2.69;60.37;97773.91;5087795;28;20243;-61
2024/01/23 10:09:04;;;;;;;12.27;6.87;;;;;;;2.65;59.85;97777.31;5089089;28;20668;-62
2024/01/23 10:11:35;;;;;;;11.80;7.10;;;;;;;2.82;58.97;97779.81;5087559;28;20224;-64
2024/01/23 10:14:03;;;;;;;12.13;8.13;;;;;;;2.84;59.38;97768.75;5088239;28;20265;-61
2024/01/23 10:16:30;;;;;;;11.10;7.33;;;;;;;2.88;58.93;97772.97;5070295;28;20206;-62
2024/01/23 10:18:59;;;;;;;11.10;7.87;;;;;;;3.10;58.38;97766.91;5088050;28;20184;-59
2024/01/23 10:21:26;;;;;;;14.00;8.10;;;;;;;3.11;60.14;97778.81;5088498;28;20208;-61
2024/01/23 10:23:54;;;;;;;14.07;8.47;;;;;;;3.35;58.02;97753.97;5065257;28;20236;-62
2024/01/23 10:26:21;;;;;;;19.27;9.10;;;;;;;3.20;58.58;97734.44;5067803;28;20224;-64
2024/01/23 10:28:48;;;;;;;14.00;6.20;;;;;;;3.47;57.75;97757.31;5067214;28;20193;-62
2024/01/23 10:31:18;;;;;;;10.60;6.20;;;;;;;3.22;60.12;97761.72;5067719;28;20256;-60
2024/01/23 10:33:45;;;;;;;10.77;6.10;;;;;;;3.35;58.18;97748.84;5066200;28;20541;-62
2024/01/23 10:36:14;;;;;;;10.33;6.83;;;;;;;3.41;58.31;97725.78;5066759;28;20197;-63
2024/01/23 10:38:43;;;;;;;12.90;6.80;;;;;;;3.57;57.98;97753.81;5067585;28;20192;-64
2024/01/23 10:41:13;;;;;;;13.27;6.70;;;;;;;3.45;57.96;97753.03;5066716;28;20185;-64
2024/01/23 10:43:41;;;;;;;14.10;7.57;;;;;;;3.43;58.50;97745.38;5067796;28;20290;-63
2024/01/23 10:46:09;;;;;;;12.03;7.13;;;;;;;3.55;57.98;97739.31;5066814;28;20197;-63
2024/01/23 10:48:37;;;;;;;12.70;7.00;;;;;;;3.73;58.60;97744.31;5067554;28;20205;-62
2024/01/23 10:51:21;;;;;;;9.17;5.73;;;;;;;3.83;56.84;97735.72;5067448;28;20253;-63
2024/01/23 10:53:57;;;;;;;11.10;6.37;;;;;;;3.74;57.58;97725.53;5067035;28;20207;-62
2024/01/23 10:56:28;;;;;;;9.90;6.40;;;;;;;3.77;57.94;97731.47;5066184;28;20201;-62
2024/01/23 10:59:00;;;;;;;12.87;6.90;;;;;;;4.01;56.68;97735.53;5066600;28;20193;-61
2024/01/23 11:01:35;;;;;;;9.97;7.20;;;;;;;4.04;56.45;97720.13;5065664;28;20189;-61
2024/01/23 11:04:02;;;;;;;9.80;5.87;;;;;;;4.25;56.00;97719.91;5067296;28;20234;-61
2024/01/23 11:06:36;;;;;;;8.93;4.90;;;;;;;3.95;55.66;97721.09;5065143;28;20289;-59
2024/01/23 11:09:11;;;;;;;7.80;5.10;;;;;;;3.88;56.32;97716.00;5066271;28;20890;-61
2024/01/23 11:11:38;;;;;;;6.93;4.50;;;;;;;3.96;57.87;97711.66;5065931;28;20276;-64
2024/01/23 11:14:45;;;;;;;9.53;4.77;;;;;;;4.08;56.42;97707.28;5066492;28;20257;-62
2024/01/23 11:17:17;;;;;;;7.33;4.40;;;;;;;4.38;55.33;97701.00;5034777;28;20210;-60
2024/01/23 11:19:46;;;;;;;6.60;3.87;;;;;;;4.43;53.63;97676.13;5056909;28;20293;-62
2024/01/23 11:22:21;;;;;;;9.53;5.50;;;;;;;4.25;55.33;97678.06;5067144;28;20678;-63
2024/01/23 11:24:49;;;;;;;7.63;4.97;;;;;;;4.33;55.95;97682.22;5085422;28;20253;-60
2024/01/23 11:27:21;;;;;;;10.30;5.50;;;;;;;4.50;55.58;97670.06;5087046;28;20251;-61
2024/01/23 11:29:50;;;;;;;9.43;4.93;;;;;;;4.66;54.15;97676.72;5063462;28;20210;-60